Leavenworth, WA

4:11 AM PST on February 23, 2017 (GMT -0800)
Ski View Condos | | Change Station

Elev 1247 ft 47.61 °N, 120.66 °W | Updated 6 seconds ago

Clear
Clear
20.1 °F
Feels Like 20 °F
N
0.0
Wind Variable Wind from NW
Gusts 0.0 mph

Today
High -- | Low -- °F
--% Chance of Precip.
Yesterday
High -- | Low -- °F
Precip. -- in
Pressure 30.16 in
Visibility 10.0 miles
Clouds Clear
Windchill 20 °F
Dew Point 15 °F
Humidity 79%
Rainfall 0.00 in
Snow Depth Not available.
6:53 AM 5:38 PM
Waning Crescent, 11% visible
METAR KEAT 231155Z AUTO 26008KT 10SM CLR M04/M06 A3012 RMK AO2 SLP212 T10391061 10000 21044 51002
Pressure 30.16 in
Visibility 10.0 miles
Clouds Clear
Windchill 20 °F
Dew Point 15 °F
Humidity 79%
Rainfall 0.00 in
Snow Depth Not available.
6:53 AM 5:38 PM
Waning Crescent, 11% visible
METAR KEAT 231155Z AUTO 26008KT 10SM CLR M04/M06 A3012 RMK AO2 SLP212 T10391061 10000 21044 51002

Get Your Daily Forecast Email!

Thanks for signing up!

Be on the lookout for a verification email in your inbox.

You'll start receiving the daily forecast at 8 AM.

×

10-Day Weather Forecast

Almanac

Astronomy

Feb. 23, 2017 Rise Set
Actual Time
Civil Twilight
Nautical Twilight
Astronomical Twilight
Moon
Length of Visible Light
Length of Day
Tomorrow will be .
, % of the Moon is Illuminated

Today's Extremes

State Highs State Lows

Community

WunderPhotos

Upload Photos

1,962,540 photos uploaded!

WunderBlog® & News

Nearby

Air Quality

  Air Quality AQ Index Pollutant
Not available.

Snow Depth

Station Depth Elevation

Earthquake Activity

City Distance Mag. Time & Date
Minimum magnitude displayed is 2.5.

Coastal Water Temperatures

Place Temperature

Stations

Nearby Weather Stations

Station Location Temp. Windchill Dew Point Humidity Wind Precip. Elev Updated Type
                   

Watches & Warnings

There are currently no watches in effect.